Parowan, Utah
Current Conditions -  °F | °C
As of 10:53 PM on Sunday 21 Dec 2014 (Local Time) from KCDC Reporting Station
Clear Clear  
Wind Chill: 35°   Ceiling: Unl
Heat Index: 40°   Visibility: 10mi
Dew Point: 33°   Wind: 7mph
Humidity: 77%   Direction: 140°SE
Pressure: 30.08"   Gusts: NA
Location:  37.84°N, 112.83°W
Report Text: KCDC 220553Z AUTO 14006KT 10SM CLR 04/01 A3008 RMK AO2 SLP168 T00440006 10100 20044 53005
Loading
Personal Weather Stations






























Interactive Weather Map New forecast layout! Learn more

10-Day Weather Forecast

Advertisements
Track Severe Weather on mobile